LFRN/RNS METAR and TAF weather

Enter ICAO airport designator
Station Type Date Time Source
LFRN METAR 2022/11/30 23:00 UTC NOAA

LFRN 302300Z AUTO 07005KT 9999 OVC013 05/04 Q1026 NOSIG


Station Type Date Time Source
LFRN Decoded METAR 2022/11/30 23:00 UTC NOAA

Rennes, France (LFRN) 48-04N 001-44W 37M
Nov 30, 2022 - 06:00 PM EST / 2022.11.30 2300 UTC
Wind: from the ENE (070 degrees) at 6 MPH (5 KT):0
Visibility: greater than 7 mile(s):0
Sky conditions: overcast
Temperature: 41 F (5 C)
Dew Point: 39 F (4 C)
Relative Humidity: 93%
Pressure (altimeter): 30.30 in. Hg (1026 hPa)
ob: LFRN 302300Z AUTO 07005KT 9999 OVC013 05/04 Q1026 NOSIG
cycle: 23

Station Type Date Time Source
LFRN TAF 2022/11/30 18:21 UTC NOAA

TAF LFRN 301700Z 3018/0118 09005KT 9999 SCT015
BECMG 3019/3021 OVC014 PROB40
TEMPO 0104/0106 4000 BR FEW015
BECMG 0106/0108 NSC
TEMPO 0111/0115 BKN014

Example: see airport list